Ohiowa, Nebraska
Current Conditions -  °F | °C
As of 9:55 PM on Tuesday 27 Jan 2015 (Local Time) from KHJH Reporting Station
Clear Clear  
Wind Chill: 37°   Ceiling: Unl
Heat Index: 41°   Visibility: 10mi
Dew Point: 30°   Wind: 7mph
Humidity: 65%   Direction: 100°E
Pressure: 29.93"   Gusts: NA
Location:  40.41°N, 97.45°W
Report Text: KHJH 280355Z AUTO 10006KT 10SM CLR 05/M01 A2993 RMK AO2 T00511009
Loading
Personal Weather Stations






























Interactive Weather Map New forecast layout! Learn more

10-Day Weather Forecast

Advertisements
Track Severe Weather on mobile